sensor_id;sensor_type;location;lat;lon;timestamp;pressure;altitude;pressure_sealevel;temperature;humidity
61568;BME280;47462;59.172;17.196;2022-11-23T00:00:54;100893.00;;;1.86;86.13
61568;BME280;47462;59.172;17.196;2022-11-23T00:03:20;100895.56;;;1.85;85.76
61568;BME280;47462;59.172;17.196;2022-11-23T00:05:45;100905.06;;;1.90;85.62
61568;BME280;47462;59.172;17.196;2022-11-23T00:08:10;100905.91;;;1.88;85.34
61568;BME280;47462;59.172;17.196;2022-11-23T00:10:36;100903.22;;;1.78;85.48
61568;BME280;47462;59.172;17.196;2022-11-23T00:13:01;100913.59;;;1.86;85.25
61568;BME280;47462;59.172;17.196;2022-11-23T00:15:27;100903.31;;;1.86;85.50
61568;BME280;47462;59.172;17.196;2022-11-23T00:17:52;100907.59;;;1.86;85.28
61568;BME280;47462;59.172;17.196;2022-11-23T00:20:17;100907.59;;;1.86;85.07
61568;BME280;47462;59.172;17.196;2022-11-23T00:22:43;100905.00;;;1.84;85.29
61568;BME280;47462;59.172;17.196;2022-11-23T00:25:08;100872.25;;;1.68;85.17
61568;BME280;47462;59.172;17.196;2022-11-23T00:27:34;100893.78;;;1.79;84.80
61568;BME280;47462;59.172;17.196;2022-11-23T00:29:59;100898.13;;;1.83;84.59
61568;BME280;47462;59.172;17.196;2022-11-23T00:32:24;100914.38;;;1.79;84.64
61568;BME280;47462;59.172;17.196;2022-11-23T00:34:51;100891.94;;;1.64;85.01
61568;BME280;47462;59.172;17.196;2022-11-23T00:37:16;100916.94;;;1.79;84.69
61568;BME280;47462;59.172;17.196;2022-11-23T00:39:42;100918.69;;;1.80;84.40
61568;BME280;47462;59.172;17.196;2022-11-23T00:42:07;100906.66;;;1.79;84.40
61568;BME280;47462;59.172;17.196;2022-11-23T00:44:33;100848.81;;;1.43;84.44
61568;BME280;47462;59.172;17.196;2022-11-23T00:46:58;100912.66;;;1.78;84.51
61568;BME280;47462;59.172;17.196;2022-11-23T00:49:23;100884.16;;;1.59;84.33
61568;BME280;47462;59.172;17.196;2022-11-23T00:51:49;100745.19;;;0.70;84.67
61568;BME280;47462;59.172;17.196;2022-11-23T00:54:14;100903.91;;;1.62;84.65
61568;BME280;47462;59.172;17.196;2022-11-23T00:56:40;100887.53;;;1.55;84.59
61568;BME280;47462;59.172;17.196;2022-11-23T00:59:05;100913.44;;;1.71;84.30
61568;BME280;47462;59.172;17.196;2022-11-23T01:01:33;100920.31;;;1.72;84.32
61568;BME280;47462;59.172;17.196;2022-11-23T01:04:01;100915.09;;;1.66;84.34
61568;BME280;47462;59.172;17.196;2022-11-23T01:06:29;100863.19;;;1.27;84.49
61568;BME280;47462;59.172;17.196;2022-11-23T01:08:58;100912.53;;;1.64;84.44
61568;BME280;47462;59.172;17.196;2022-11-23T01:11:26;100918.56;;;1.68;84.32
61568;BME280;47462;59.172;17.196;2022-11-23T01:13:52;100907.31;;;1.59;84.06
61568;BME280;47462;59.172;17.196;2022-11-23T01:16:19;100914.19;;;1.64;83.91
61568;BME280;47462;59.172;17.196;2022-11-23T01:18:45;100745.81;;;0.52;84.21
61568;BME280;47462;59.172;17.196;2022-11-23T01:21:10;100925.28;;;1.56;84.29
61568;BME280;47462;59.172;17.196;2022-11-23T01:23:36;100920.16;;;1.56;84.24
61568;BME280;47462;59.172;17.196;2022-11-23T01:26:09;100921.84;;;1.57;83.97
61568;BME280;47462;59.172;17.196;2022-11-23T01:28:36;100927.00;;;1.57;84.09
61568;BME280;47462;59.172;17.196;2022-11-23T01:31:08;100929.56;;;1.57;84.04
61568;BME280;47462;59.172;17.196;2022-11-23T01:33:35;100926.19;;;1.60;84.03
61568;BME280;47462;59.172;17.196;2022-11-23T01:36:07;100920.09;;;1.52;84.51
61568;BME280;47462;59.172;17.196;2022-11-23T01:38:32;100897.63;;;1.37;84.39
61568;BME280;47462;59.172;17.196;2022-11-23T01:40:57;100702.63;;;0.22;84.22
61568;BME280;47462;59.172;17.196;2022-11-23T01:43:23;100905.50;;;1.51;84.54
61568;BME280;47462;59.172;17.196;2022-11-23T01:48:19;100917.66;;;1.64;83.90
61568;BME280;47462;59.172;17.196;2022-11-23T01:50:49;100899.56;;;1.56;83.94
61568;BME280;47462;59.172;17.196;2022-11-23T01:53:15;100911.59;;;1.60;83.98
61568;BME280;47462;59.172;17.196;2022-11-23T01:55:42;100832.16;;;1.12;83.78
61568;BME280;47462;59.172;17.196;2022-11-23T01:58:11;100917.56;;;1.56;83.94
61568;BME280;47462;59.172;17.196;2022-11-23T02:00:37;100905.44;;;1.45;83.67
61568;BME280;47462;59.172;17.196;2022-11-23T02:03:03;100876.16;;;1.33;83.78
61568;BME280;47462;59.172;17.196;2022-11-23T02:05:57;100911.53;;;1.54;83.67
61568;BME280;47462;59.172;17.196;2022-11-23T02:08:26;100906.38;;;1.53;83.71
61568;BME280;47462;59.172;17.196;2022-11-23T02:10:53;100832.16;;;1.10;82.92
61568;BME280;47462;59.172;17.196;2022-11-23T02:13:19;100911.56;;;1.57;82.81
61568;BME280;47462;59.172;17.196;2022-11-23T02:15:44;100719.06;;;0.38;82.92
61568;BME280;47462;59.172;17.196;2022-11-23T02:18:20;100894.22;;;1.39;82.97
61568;BME280;47462;59.172;17.196;2022-11-23T02:20:46;100825.16;;;0.97;82.86
61568;BME280;47462;59.172;17.196;2022-11-23T02:26:27;100918.31;;;1.46;82.79
61568;BME280;47462;59.172;17.196;2022-11-23T02:29:00;100915.78;;;1.51;82.42
61568;BME280;47462;59.172;17.196;2022-11-23T02:31:27;100891.66;;;1.38;82.20
61568;BME280;47462;59.172;17.196;2022-11-23T02:33:53;100905.44;;;1.45;82.13
61568;BME280;47462;59.172;17.196;2022-11-23T02:39:04;100853.72;;;1.20;81.96
61568;BME280;47462;59.172;17.196;2022-11-23T02:41:42;100882.19;;;1.37;81.87
61568;BME280;47462;59.172;17.196;2022-11-23T02:44:19;100914.97;;;1.55;81.99
61568;BME280;47462;59.172;17.196;2022-11-23T02:46:47;100911.59;;;1.60;82.16
61568;BME280;47462;59.172;17.196;2022-11-23T02:49:13;100875.25;;;1.30;81.89
61568;BME280;47462;59.172;17.196;2022-11-23T02:51:38;100899.56;;;1.56;81.57
61568;BME280;47462;59.172;17.196;2022-11-23T02:54:04;100917.72;;;1.69;81.57
61568;BME280;47462;59.172;17.196;2022-11-23T02:56:29;100892.75;;;1.62;81.51
61568;BME280;47462;59.172;17.196;2022-11-23T02:58:55;100905.72;;;1.71;81.64
61568;BME280;47462;59.172;17.196;2022-11-23T03:01:20;100906.59;;;1.73;81.26
61568;BME280;47462;59.172;17.196;2022-11-23T03:03:46;100898.88;;;1.74;81.59
61568;BME280;47462;59.172;17.196;2022-11-23T03:06:11;100900.63;;;1.77;81.55
61568;BME280;47462;59.172;17.196;2022-11-23T03:08:37;100881.63;;;1.63;81.04
61568;BME280;47462;59.172;17.196;2022-11-23T03:11:02;100903.19;;;1.75;81.06
61568;BME280;47462;59.172;17.196;2022-11-23T03:13:27;100847.94;;;1.38;81.28
61568;BME280;47462;59.172;17.196;2022-11-23T03:15:56;100898.91;;;1.76;81.14
61568;BME280;47462;59.172;17.196;2022-11-23T03:18:22;100904.94;;;1.78;81.24
61568;BME280;47462;59.172;17.196;2022-11-23T03:20:47;100901.50;;;1.79;81.17
61568;BME280;47462;59.172;17.196;2022-11-23T03:23:13;100904.09;;;1.81;80.92
61568;BME280;47462;59.172;17.196;2022-11-23T03:25:38;100887.72;;;1.72;80.63
61568;BME280;47462;59.172;17.196;2022-11-23T03:28:04;100882.50;;;1.66;80.66
61568;BME280;47462;59.172;17.196;2022-11-23T03:30:29;100894.66;;;1.78;80.91
61568;BME280;47462;59.172;17.196;2022-11-23T03:32:55;100898.81;;;1.67;80.83
61568;BME280;47462;59.172;17.196;2022-11-23T03:35:21;100905.72;;;1.72;81.10
61568;BME280;47462;59.172;17.196;2022-11-23T03:37:46;100818.56;;;1.20;80.79
61568;BME280;47462;59.172;17.196;2022-11-23T03:40:12;100896.28;;;1.71;81.05
61568;BME280;47462;59.172;17.196;2022-11-23T03:42:39;100841.03;;;1.35;81.04
61568;BME280;47462;59.172;17.196;2022-11-23T03:45:05;100900.59;;;1.72;80.88
61568;BME280;47462;59.172;17.196;2022-11-23T03:47:31;100898.88;;;1.73;81.18
61568;BME280;47462;59.172;17.196;2022-11-23T03:49:56;100885.16;;;1.72;81.37
61568;BME280;47462;59.172;17.196;2022-11-23T03:52:21;100884.31;;;1.72;81.15
61568;BME280;47462;59.172;17.196;2022-11-23T03:54:47;100841.16;;;1.46;81.35
61568;BME280;47462;59.172;17.196;2022-11-23T03:57:13;100892.84;;;1.71;81.00
61568;BME280;47462;59.172;17.196;2022-11-23T03:59:38;100860.03;;;1.50;80.85
61568;BME280;47462;59.172;17.196;2022-11-23T04:02:03;100892.84;;;1.69;81.46
61568;BME280;47462;59.172;17.196;2022-11-23T04:04:30;100900.44;;;1.58;81.29
61568;BME280;47462;59.172;17.196;2022-11-23T04:06:55;100881.56;;;1.56;81.34
61568;BME280;47462;59.172;17.196;2022-11-23T04:09:21;100902.25;;;1.67;81.32
61568;BME280;47462;59.172;17.196;2022-11-23T04:11:46;100903.09;;;1.66;81.52
61568;BME280;47462;59.172;17.196;2022-11-23T04:14:12;100824.59;;;1.24;81.50
61568;BME280;47462;59.172;17.196;2022-11-23T04:16:37;100810.78;;;1.14;81.19
61568;BME280;47462;59.172;17.196;2022-11-23T04:19:02;100895.41;;;1.68;81.60
61568;BME280;47462;59.172;17.196;2022-11-23T04:21:28;100801.41;;;1.18;81.27
61568;BME280;47462;59.172;17.196;2022-11-23T04:23:53;100882.50;;;1.65;81.57
61568;BME280;47462;59.172;17.196;2022-11-23T04:26:19;100866.13;;;1.55;81.24
61568;BME280;47462;59.172;17.196;2022-11-23T04:28:44;100860.97;;;1.55;81.23
61568;BME280;47462;59.172;17.196;2022-11-23T04:31:10;100872.22;;;1.65;81.24
61568;BME280;47462;59.172;17.196;2022-11-23T04:33:35;100863.63;;;1.63;81.59
61568;BME280;47462;59.172;17.196;2022-11-23T04:36:00;100862.75;;;1.64;81.38
61568;BME280;47462;59.172;17.196;2022-11-23T04:38:26;100841.19;;;1.49;81.88
61568;BME280;47462;59.172;17.196;2022-11-23T04:40:51;100823.91;;;1.39;81.73
61568;BME280;47462;59.172;17.196;2022-11-23T04:43:16;100877.38;;;1.68;81.72
61568;BME280;47462;59.172;17.196;2022-11-23T04:45:42;100861.72;;;1.46;81.56
61568;BME280;47462;59.172;17.196;2022-11-23T04:48:08;100829.97;;;1.41;81.75
61568;BME280;47462;59.172;17.196;2022-11-23T04:50:33;100879.13;;;1.69;82.12
61568;BME280;47462;59.172;17.196;2022-11-23T04:52:59;100741.13;;;0.89;81.76
61568;BME280;47462;59.172;17.196;2022-11-23T04:55:25;100872.28;;;1.71;81.98
61568;BME280;47462;59.172;17.196;2022-11-23T04:57:50;100889.44;;;1.72;81.96
61568;BME280;47462;59.172;17.196;2022-11-23T05:00:16;100873.13;;;1.71;82.25
61568;BME280;47462;59.172;17.196;2022-11-23T05:02:41;100871.44;;;1.72;81.88
61568;BME280;47462;59.172;17.196;2022-11-23T05:05:07;100868.84;;;1.72;81.97
61568;BME280;47462;59.172;17.196;2022-11-23T05:07:33;100801.50;;;1.29;82.19
61568;BME280;47462;59.172;17.196;2022-11-23T05:09:58;100842.97;;;1.55;82.22
61568;BME280;47462;59.172;17.196;2022-11-23T05:12:24;100880.81;;;1.70;82.05
61568;BME280;47462;59.172;17.196;2022-11-23T05:14:49;100799.81;;;1.28;82.42
61568;BME280;47462;59.172;17.196;2022-11-23T05:17:14;100836.88;;;1.48;82.50
61568;BME280;47462;59.172;17.196;2022-11-23T05:19:40;100865.38;;;1.70;82.56
61568;BME280;47462;59.172;17.196;2022-11-23T05:22:05;100866.28;;;1.72;82.40
61568;BME280;47462;59.172;17.196;2022-11-23T05:24:31;100867.16;;;1.74;82.39
61568;BME280;47462;59.172;17.196;2022-11-23T05:26:56;100848.22;;;1.66;81.89
61568;BME280;47462;59.172;17.196;2022-11-23T05:29:21;100871.47;;;1.75;82.34
61568;BME280;47462;59.172;17.196;2022-11-23T05:31:47;100878.34;;;1.79;82.11
61568;BME280;47462;59.172;17.196;2022-11-23T05:34:12;100889.50;;;1.78;81.99
61568;BME280;47462;59.172;17.196;2022-11-23T05:36:37;100887.81;;;1.80;82.16
61568;BME280;47462;59.172;17.196;2022-11-23T05:39:03;100890.41;;;1.82;81.92
61568;BME280;47462;59.172;17.196;2022-11-23T05:41:28;100894.72;;;1.84;82.03
61568;BME280;47462;59.172;17.196;2022-11-23T05:43:53;100877.50;;;1.78;81.66
61568;BME280;47462;59.172;17.196;2022-11-23T05:46:19;100842.13;;;1.59;81.62
61568;BME280;47462;59.172;17.196;2022-11-23T05:48:44;100894.78;;;1.90;81.66
61568;BME280;47462;59.172;17.196;2022-11-23T05:51:10;100894.78;;;1.90;81.46
61568;BME280;47462;59.172;17.196;2022-11-23T05:53:36;100867.97;;;1.71;81.94
61568;BME280;47462;59.172;17.196;2022-11-23T05:56:01;100890.44;;;1.88;81.58
61568;BME280;47462;59.172;17.196;2022-11-23T05:58:27;100905.03;;;1.87;81.69
61568;BME280;47462;59.172;17.196;2022-11-23T06:00:59;100899.91;;;1.90;81.88
61568;BME280;47462;59.172;17.196;2022-11-23T06:03:25;100867.91;;;1.65;81.68
61568;BME280;47462;59.172;17.196;2022-11-23T06:05:51;100860.16;;;1.60;81.86
61568;BME280;47462;59.172;17.196;2022-11-23T06:08:17;100874.88;;;1.74;82.13
61568;BME280;47462;59.172;17.196;2022-11-23T06:10:42;100897.38;;;1.92;81.92
61568;BME280;47462;59.172;17.196;2022-11-23T06:13:08;100853.31;;;1.59;81.94
61568;BME280;47462;59.172;17.196;2022-11-23T06:15:34;100892.19;;;1.87;81.57
61568;BME280;47462;59.172;17.196;2022-11-23T06:18:00;100900.78;;;1.92;82.02
61568;BME280;47462;59.172;17.196;2022-11-23T06:20:29;100906.81;;;1.94;81.76
61568;BME280;47462;59.172;17.196;2022-11-23T06:22:54;100900.78;;;1.92;81.92
61568;BME280;47462;59.172;17.196;2022-11-23T06:25:23;100838.59;;;1.49;81.96
61568;BME280;47462;59.172;17.196;2022-11-23T06:27:56;100891.91;;;1.63;81.85
61568;BME280;47462;59.172;17.196;2022-11-23T06:30:23;100914.50;;;1.93;82.01
61568;BME280;47462;59.172;17.196;2022-11-23T06:32:54;100909.38;;;1.93;81.82
61568;BME280;47462;59.172;17.196;2022-11-23T06:35:19;100886.06;;;1.79;82.30
61568;BME280;47462;59.172;17.196;2022-11-23T06:37:47;100772.19;;;1.11;82.18
61568;BME280;47462;59.172;17.196;2022-11-23T06:40:14;100880.03;;;1.75;82.33
61568;BME280;47462;59.172;17.196;2022-11-23T06:42:39;100906.78;;;1.93;82.21
61568;BME280;47462;59.172;17.196;2022-11-23T06:45:06;100901.66;;;1.93;82.08
61568;BME280;47462;59.172;17.196;2022-11-23T06:47:31;100882.69;;;1.83;82.02
61568;BME280;47462;59.172;17.196;2022-11-23T06:49:57;100872.31;;;1.74;82.18
61568;BME280;47462;59.172;17.196;2022-11-23T06:52:22;100861.06;;;1.63;81.74
61568;BME280;47462;59.172;17.196;2022-11-23T06:54:48;100875.69;;;1.70;82.22
61568;BME280;47462;59.172;17.196;2022-11-23T06:57:14;100823.94;;;1.42;82.33
61568;BME280;47462;59.172;17.196;2022-11-23T06:59:39;100917.03;;;1.88;82.09
61568;BME280;47462;59.172;17.196;2022-11-23T07:02:05;100922.22;;;1.93;81.89
61568;BME280;47462;59.172;17.196;2022-11-23T07:04:34;100908.44;;;1.86;81.95
61568;BME280;47462;59.172;17.196;2022-11-23T07:07:00;100919.69;;;1.94;81.73
61568;BME280;47462;59.172;17.196;2022-11-23T07:09:26;100930.84;;;1.93;81.74
61568;BME280;47462;59.172;17.196;2022-11-23T07:11:51;100795.38;;;1.16;82.24
61568;BME280;47462;59.172;17.196;2022-11-23T07:14:17;100929.94;;;1.93;82.21
61568;BME280;47462;59.172;17.196;2022-11-23T07:16:43;100856.63;;;1.51;82.13
61568;BME280;47462;59.172;17.196;2022-11-23T07:19:08;100913.59;;;1.86;82.42
61568;BME280;47462;59.172;17.196;2022-11-23T07:21:34;100911.91;;;1.88;82.09
61568;BME280;47462;59.172;17.196;2022-11-23T07:23:59;100882.53;;;1.69;82.12
61568;BME280;47462;59.172;17.196;2022-11-23T07:26:25;100804.94;;;1.26;81.56
61568;BME280;47462;59.172;17.196;2022-11-23T07:28:51;100922.13;;;1.82;82.01
61568;BME280;47462;59.172;17.196;2022-11-23T07:31:17;100915.28;;;1.83;81.83
61568;BME280;47462;59.172;17.196;2022-11-23T07:33:44;100752.31;;;0.95;81.76
61568;BME280;47462;59.172;17.196;2022-11-23T07:36:10;100701.38;;;0.60;81.48
61568;BME280;47462;59.172;17.196;2022-11-23T07:38:35;100798.03;;;1.23;81.78
61568;BME280;47462;59.172;17.196;2022-11-23T07:41:02;100905.84;;;1.83;81.47
61568;BME280;47462;59.172;17.196;2022-11-23T07:43:28;100856.53;;;1.43;81.42
61568;BME280;47462;59.172;17.196;2022-11-23T07:45:57;100816.94;;;1.30;81.59
61568;BME280;47462;59.172;17.196;2022-11-23T07:48:23;100928.19;;;1.87;81.75
61568;BME280;47462;59.172;17.196;2022-11-23T07:50:53;100885.97;;;1.70;81.36
61568;BME280;47462;59.172;17.196;2022-11-23T07:53:19;100920.47;;;1.86;81.37
61568;BME280;47462;59.172;17.196;2022-11-23T07:55:44;100878.13;;;1.57;81.39
61568;BME280;47462;59.172;17.196;2022-11-23T07:58:10;100888.53;;;1.68;81.41
61568;BME280;47462;59.172;17.196;2022-11-23T08:00:36;100904.13;;;1.84;81.29
61568;BME280;47462;59.172;17.196;2022-11-23T08:03:02;100898.03;;;1.74;81.36
61568;BME280;47462;59.172;17.196;2022-11-23T08:05:30;100927.19;;;1.74;81.18
61568;BME280;47462;59.172;17.196;2022-11-23T08:08:00;100863.56;;;1.56;81.71
61568;BME280;47462;59.172;17.196;2022-11-23T08:10:28;100912.72;;;1.83;81.39
61568;BME280;47462;59.172;17.196;2022-11-23T08:12:58;100882.50;;;1.66;81.61
61568;BME280;47462;59.172;17.196;2022-11-23T08:15:24;100694.50;;;0.56;81.51
61568;BME280;47462;59.172;17.196;2022-11-23T08:17:56;100911.06;;;1.89;81.72
61568;BME280;47462;59.172;17.196;2022-11-23T08:20:21;100915.41;;;1.93;81.77
61568;BME280;47462;59.172;17.196;2022-11-23T08:22:47;100887.78;;;1.78;81.65
61568;BME280;47462;59.172;17.196;2022-11-23T08:25:13;100899.88;;;1.84;81.46
61568;BME280;47462;59.172;17.196;2022-11-23T08:27:38;100819.69;;;1.42;81.37
61568;BME280;47462;59.172;17.196;2022-11-23T08:30:04;100861.94;;;1.68;81.14
61568;BME280;47462;59.172;17.196;2022-11-23T08:32:30;100912.88;;;2.00;81.50
61568;BME280;47462;59.172;17.196;2022-11-23T08:34:55;100823.09;;;1.43;81.26
61568;BME280;47462;59.172;17.196;2022-11-23T08:37:20;100912.94;;;2.04;81.24
61568;BME280;47462;59.172;17.196;2022-11-23T08:39:46;100919.84;;;2.10;80.91
61568;BME280;47462;59.172;17.196;2022-11-23T08:42:11;100923.31;;;2.13;80.79
61568;BME280;47462;59.172;17.196;2022-11-23T08:44:37;100920.75;;;2.13;81.26
61568;BME280;47462;59.172;17.196;2022-11-23T08:47:02;100932.78;;;2.16;81.10
61568;BME280;47462;59.172;17.196;2022-11-23T08:49:27;100896.44;;;1.88;81.12
61568;BME280;47462;59.172;17.196;2022-11-23T08:51:53;100910.28;;;1.96;80.73
61568;BME280;47462;59.172;17.196;2022-11-23T08:54:19;100932.81;;;2.19;80.97
61568;BME280;47462;59.172;17.196;2022-11-23T08:56:44;100767.16;;;1.20;80.93
61568;BME280;47462;59.172;17.196;2022-11-23T08:59:10;100944.00;;;2.24;81.32
61568;BME280;47462;59.172;17.196;2022-11-23T09:01:36;100945.66;;;2.16;81.11
61568;BME280;47462;59.172;17.196;2022-11-23T09:04:01;100903.44;;;1.99;81.33
61568;BME280;47462;59.172;17.196;2022-11-23T09:06:32;100931.84;;;2.11;80.80
61568;BME280;47462;59.172;17.196;2022-11-23T09:08:57;100874.91;;;1.77;81.29
61568;BME280;47462;59.172;17.196;2022-11-23T09:11:23;100907.66;;;1.92;81.46
61568;BME280;47462;59.172;17.196;2022-11-23T09:13:49;100943.94;;;2.17;81.19
61568;BME280;47462;59.172;17.196;2022-11-23T09:16:15;100845.53;;;1.55;80.96
61568;BME280;47462;59.172;17.196;2022-11-23T09:18:40;100941.34;;;2.15;81.22
61568;BME280;47462;59.172;17.196;2022-11-23T09:21:05;100933.59;;;2.13;81.40
61568;BME280;47462;59.172;17.196;2022-11-23T09:23:31;100943.06;;;2.13;81.61
61568;BME280;47462;59.172;17.196;2022-11-23T09:25:58;100936.97;;;2.08;81.71
61568;BME280;47462;59.172;17.196;2022-11-23T09:28:24;100905.03;;;1.86;81.81
61568;BME280;47462;59.172;17.196;2022-11-23T09:30:52;100924.03;;;2.02;81.86
61568;BME280;47462;59.172;17.196;2022-11-23T09:33:18;100932.50;;;1.91;82.32
61568;BME280;47462;59.172;17.196;2022-11-23T09:35:43;100909.25;;;1.81;82.04
61568;BME280;47462;59.172;17.196;2022-11-23T09:38:08;100929.97;;;1.94;82.58
61568;BME280;47462;59.172;17.196;2022-11-23T09:40:39;100931.66;;;1.89;82.37
61568;BME280;47462;59.172;17.196;2022-11-23T09:43:29;100940.25;;;1.93;82.34
61568;BME280;47462;59.172;17.196;2022-11-23T09:48:53;100941.13;;;1.92;82.75
61568;BME280;47462;59.172;17.196;2022-11-23T09:51:22;100920.47;;;1.87;83.04
61568;BME280;47462;59.172;17.196;2022-11-23T09:53:54;100929.13;;;1.95;82.94
61568;BME280;47462;59.172;17.196;2022-11-23T09:56:31;100874.75;;;1.63;82.78
61568;BME280;47462;59.172;17.196;2022-11-23T09:58:58;100875.50;;;1.54;83.21
61568;BME280;47462;59.172;17.196;2022-11-23T10:01:25;100928.19;;;1.87;83.14
61568;BME280;47462;59.172;17.196;2022-11-23T10:03:55;100917.00;;;1.85;83.27
61568;BME280;47462;59.172;17.196;2022-11-23T10:06:23;100779.84;;;1.06;83.34
61568;BME280;47462;59.172;17.196;2022-11-23T10:15:10;100907.72;;;1.96;83.14
61568;BME280;47462;59.172;17.196;2022-11-23T10:17:56;100913.75;;;2.02;83.19
61568;BME280;47462;59.172;17.196;2022-11-23T10:20:48;100904.31;;;1.99;83.12
61568;BME280;47462;59.172;17.196;2022-11-23T10:26:09;100885.34;;;1.92;83.34
61568;BME280;47462;59.172;17.196;2022-11-23T10:28:36;100774.97;;;1.31;83.25
61568;BME280;47462;59.172;17.196;2022-11-23T10:31:16;100901.78;;;2.04;83.66
61568;BME280;47462;59.172;17.196;2022-11-23T10:33:52;100907.75;;;2.03;83.66
61568;BME280;47462;59.172;17.196;2022-11-23T10:36:19;100817.97;;;1.45;83.34
61568;BME280;47462;59.172;17.196;2022-11-23T10:38:48;100894.00;;;1.98;83.67
61568;BME280;47462;59.172;17.196;2022-11-23T10:41:15;100905.22;;;2.06;83.48
61568;BME280;47462;59.172;17.196;2022-11-23T10:43:48;100836.22;;;1.66;83.21
61568;BME280;47462;59.172;17.196;2022-11-23T10:46:24;100900.75;;;1.89;83.66
61568;BME280;47462;59.172;17.196;2022-11-23T10:48:51;100802.63;;;1.52;83.62
61568;BME280;47462;59.172;17.196;2022-11-23T10:51:28;100893.22;;;2.08;83.74
61568;BME280;47462;59.172;17.196;2022-11-23T10:54:02;100888.94;;;2.08;83.59
61568;BME280;47462;59.172;17.196;2022-11-23T10:56:28;100888.09;;;2.12;83.93
61568;BME280;47462;59.172;17.196;2022-11-23T10:58:54;100882.88;;;2.05;83.88
61568;BME280;47462;59.172;17.196;2022-11-23T11:01:23;100878.69;;;2.11;83.65
61568;BME280;47462;59.172;17.196;2022-11-23T11:03:50;100876.97;;;2.13;83.46
61568;BME280;47462;59.172;17.196;2022-11-23T11:06:31;100863.13;;;1.99;83.44
61568;BME280;47462;59.172;17.196;2022-11-23T11:09:03;100883.00;;;2.17;83.73
61568;BME280;47462;59.172;17.196;2022-11-23T11:11:34;100863.25;;;2.13;83.63
61568;BME280;47462;59.172;17.196;2022-11-23T11:14:13;100889.06;;;2.21;83.81
61568;BME280;47462;59.172;17.196;2022-11-23T11:16:49;100880.47;;;2.22;83.47
61568;BME280;47462;59.172;17.196;2022-11-23T11:19:24;100877.06;;;2.26;83.36
61568;BME280;47462;59.172;17.196;2022-11-23T11:21:50;100879.63;;;2.24;83.68
61568;BME280;47462;59.172;17.196;2022-11-23T11:24:27;100879.66;;;2.27;83.66
61568;BME280;47462;59.172;17.196;2022-11-23T11:27:04;100880.50;;;2.28;83.33
61568;BME280;47462;59.172;17.196;2022-11-23T11:29:47;100889.13;;;2.30;83.37
61568;BME280;47462;59.172;17.196;2022-11-23T11:37:45;100888.28;;;2.34;83.71
61568;BME280;47462;59.172;17.196;2022-11-23T11:42:42;100889.16;;;2.31;83.97
61568;BME280;47462;59.172;17.196;2022-11-23T11:45:22;100896.84;;;2.28;83.70
61568;BME280;47462;59.172;17.196;2022-11-23T11:47:56;100889.97;;;2.27;83.51
61568;BME280;47462;59.172;17.196;2022-11-23T11:50:51;100894.22;;;2.22;83.39
61568;BME280;47462;59.172;17.196;2022-11-23T11:53:22;100825.19;;;1.80;83.47
61568;BME280;47462;59.172;17.196;2022-11-23T11:56:00;100889.94;;;2.26;84.01
61568;BME280;47462;59.172;17.196;2022-11-23T11:58:29;100820.16;;;1.90;83.24
61568;BME280;47462;59.172;17.196;2022-11-23T12:01:18;100818.38;;;1.85;83.56
61568;BME280;47462;59.172;17.196;2022-11-23T12:03:51;100844.28;;;2.06;83.49
61568;BME280;47462;59.172;17.196;2022-11-23T12:06:26;100886.63;;;2.41;83.55
61568;BME280;47462;59.172;17.196;2022-11-23T12:11:33;100832.41;;;2.21;82.95
61568;BME280;47462;59.172;17.196;2022-11-23T12:14:00;100874.66;;;2.49;83.39
61568;BME280;47462;59.172;17.196;2022-11-23T12:19:31;100848.84;;;2.40;83.08
61568;BME280;47462;59.172;17.196;2022-11-23T12:22:27;100877.31;;;2.60;83.21
61568;BME280;47462;59.172;17.196;2022-11-23T12:30:41;100877.38;;;2.69;82.41
61568;BME280;47462;59.172;17.196;2022-11-23T12:33:25;100856.63;;;2.49;82.31
61568;BME280;47462;59.172;17.196;2022-11-23T12:42:06;100880.03;;;2.81;82.62
61568;BME280;47462;59.172;17.196;2022-11-23T12:44:48;100871.47;;;2.82;81.95
61568;BME280;47462;59.172;17.196;2022-11-23T12:58:21;100875.66;;;2.63;82.62
61568;BME280;47462;59.172;17.196;2022-11-23T13:01:11;100849.75;;;2.46;82.41
61568;BME280;47462;59.172;17.196;2022-11-23T13:23:15;100847.59;;;1.94;84.00
61568;BME280;47462;59.172;17.196;2022-11-23T13:26:26;100896.75;;;2.18;84.18
61568;BME280;47462;59.172;17.196;2022-11-23T13:28:53;100879.50;;;2.10;83.92
61568;BME280;47462;59.172;17.196;2022-11-23T13:31:24;100896.81;;;2.25;84.26
61568;BME280;47462;59.172;17.196;2022-11-23T13:33:56;100895.94;;;2.25;84.14
61568;BME280;47462;59.172;17.196;2022-11-23T13:36:35;100901.09;;;2.25;84.48
61568;BME280;47462;59.172;17.196;2022-11-23T13:39:03;100900.22;;;2.24;84.15
61568;BME280;47462;59.172;17.196;2022-11-23T13:46:44;100896.81;;;2.25;84.23
61568;BME280;47462;59.172;17.196;2022-11-23T13:49:32;100889.06;;;2.22;84.34
61568;BME280;47462;59.172;17.196;2022-11-23T13:54:59;100884.72;;;2.17;84.31
61568;BME280;47462;59.172;17.196;2022-11-23T13:57:25;100864.88;;;2.05;84.30
61568;BME280;47462;59.172;17.196;2022-11-23T13:59:51;100889.84;;;2.15;84.22
61568;BME280;47462;59.172;17.196;2022-11-23T14:02:43;100687.25;;;0.97;83.93
61568;BME280;47462;59.172;17.196;2022-11-23T14:05:33;100880.34;;;2.08;84.53
61568;BME280;47462;59.172;17.196;2022-11-23T14:08:17;100821.63;;;1.67;84.09
61568;BME280;47462;59.172;17.196;2022-11-23T14:10:43;100882.88;;;2.05;84.13
61568;BME280;47462;59.172;17.196;2022-11-23T14:13:17;100881.03;;;1.91;84.59
61568;BME280;47462;59.172;17.196;2022-11-23T14:15:51;100888.88;;;1.99;84.13
61568;BME280;47462;59.172;17.196;2022-11-23T14:21:25;100896.47;;;1.90;84.28
61568;BME280;47462;59.172;17.196;2022-11-23T14:30:31;100897.31;;;1.87;84.48